Time;durP1;ratioP1;P1;durP2;ratioP2;P2;SDS_P1;SDS_P2;PMS_P1;PMS_P2;Temp;Humidity;BMP_temperature;BMP_pressure;BME280_temperature;BME280_humidity;BME280_pressure;Samples;Min_cycle;Max_cycle;Signal;HPM_P1;HPM_P2
2022/03/19 00:00:14;;;;;;;13.88;3.63;;;5.50;99.90;;;;;;5072611;28;20074;-67
2022/03/19 00:02:40;;;;;;;17.42;4.20;;;5.60;99.90;;;;;;5072865;28;20052;-67
2022/03/19 00:05:08;;;;;;;12.20;2.92;;;5.50;99.90;;;;;;5072756;28;20036;-67
2022/03/19 00:07:35;;;;;;;12.77;4.03;;;5.50;99.90;;;;;;5072115;28;20056;-67
2022/03/19 00:10:01;;;;;;;14.27;4.22;;;5.60;99.90;;;;;;5072426;28;20047;-67
2022/03/19 00:12:26;;;;;;;14.65;3.03;;;5.60;99.90;;;;;;5072390;28;20115;-67
2022/03/19 00:14:52;;;;;;;16.60;3.53;;;5.70;99.90;;;;;;5072336;28;20040;-67
2022/03/19 00:17:17;;;;;;;15.63;3.38;;;5.70;99.90;;;;;;5071498;28;20109;-67
2022/03/19 00:19:43;;;;;;;18.83;3.70;;;5.70;99.90;;;;;;5072104;28;20051;-67
2022/03/19 00:22:08;;;;;;;19.52;3.90;;;5.80;99.90;;;;;;5071796;28;20044;-67
2022/03/19 00:24:35;;;;;;;17.95;4.20;;;5.80;99.90;;;;;;5072308;28;20040;-67
2022/03/19 00:27:01;;;;;;;14.32;3.42;;;5.80;99.90;;;;;;5071871;28;20075;-67
2022/03/19 00:29:26;;;;;;;11.05;3.78;;;5.90;99.90;;;;;;5072030;28;20044;-67
2022/03/19 00:31:52;;;;;;;22.98;3.63;;;5.90;99.90;;;;;;5072022;28;20481;-67
2022/03/19 00:34:18;;;;;;;15.35;2.97;;;5.80;99.90;;;;;;5071924;28;20048;-67
2022/03/19 00:36:43;;;;;;;11.48;3.17;;;5.80;99.90;;;;;;5071748;28;20043;-67
2022/03/19 00:39:09;;;;;;;15.82;2.90;;;5.90;99.90;;;;;;5054165;28;20562;-67
2022/03/19 00:41:34;;;;;;;13.98;3.50;;;5.90;99.90;;;;;;5071937;28;20120;-67
2022/03/19 00:44:00;;;;;;;17.48;3.03;;;5.90;99.90;;;;;;5071979;28;20119;-67
2022/03/19 00:46:25;;;;;;;16.92;3.67;;;5.90;99.90;;;;;;5071650;28;20120;-67
2022/03/19 00:48:51;;;;;;;15.27;3.67;;;5.90;99.90;;;;;;5071581;28;20133;-67
2022/03/19 00:51:17;;;;;;;10.23;3.53;;;5.90;99.90;;;;;;5072058;28;20107;-67
2022/03/19 00:53:42;;;;;;;15.80;3.15;;;5.90;99.90;;;;;;5071970;28;20032;-67
2022/03/19 00:56:08;;;;;;;15.50;3.40;;;5.80;99.90;;;;;;5071575;28;20107;-67
2022/03/19 00:58:33;;;;;;;17.35;4.35;;;5.70;99.90;;;;;;5071756;28;20047;-67
2022/03/19 01:00:59;;;;;;;18.70;4.78;;;5.70;99.90;;;;;;5071677;28;20048;-67
2022/03/19 01:03:25;;;;;;;14.25;3.90;;;5.70;99.90;;;;;;5071608;28;20048;-67
2022/03/19 01:05:50;;;;;;;11.75;3.55;;;5.80;99.90;;;;;;5071579;28;20116;-67
2022/03/19 01:08:16;;;;;;;16.60;4.10;;;5.80;99.90;;;;;;5071595;28;20041;-67
2022/03/19 01:10:41;;;;;;;17.35;3.90;;;5.80;99.90;;;;;;5071583;28;20048;-67
2022/03/19 01:13:08;;;;;;;15.45;3.50;;;5.70;99.90;;;;;;5071740;28;20033;-67
2022/03/19 01:15:34;;;;;;;13.30;3.22;;;5.80;99.90;;;;;;5071327;28;20043;-67
2022/03/19 01:18:00;;;;;;;11.02;3.20;;;5.80;99.90;;;;;;5071579;28;20037;-67
2022/03/19 01:20:26;;;;;;;15.35;4.43;;;5.70;99.90;;;;;;5071604;28;20115;-67
2022/03/19 01:22:52;;;;;;;10.55;2.97;;;5.80;99.90;;;;;;5071717;28;20127;-67
2022/03/19 01:25:19;;;;;;;14.68;3.60;;;5.80;99.90;;;;;;5071292;28;20032;-67
2022/03/19 01:27:46;;;;;;;14.77;4.72;;;5.80;99.90;;;;;;5071502;28;20036;-67
2022/03/19 01:30:14;;;;;;;18.00;3.80;;;5.70;99.90;;;;;;5071280;28;20079;-67
2022/03/19 01:32:41;;;;;;;11.75;3.78;;;5.70;99.90;;;;;;5073066;28;20041;-67
2022/03/19 01:35:08;;;;;;;18.33;4.05;;;5.70;99.90;;;;;;5075598;28;20037;-67
2022/03/19 01:37:33;;;;;;;13.90;4.63;;;5.70;99.90;;;;;;5075315;28;20037;-67
2022/03/19 01:39:59;;;;;;;18.42;5.82;;;5.70;99.90;;;;;;5075314;28;20464;-67
2022/03/19 01:42:26;;;;;;;17.23;4.45;;;5.70;99.90;;;;;;5075358;28;20603;-67
2022/03/19 01:44:53;;;;;;;15.23;4.18;;;5.60;99.90;;;;;;5075293;28;20076;-67
2022/03/19 01:47:20;;;;;;;16.30;4.43;;;5.60;99.90;;;;;;5075150;28;20044;-67
2022/03/19 01:49:45;;;;;;;13.55;3.80;;;5.60;99.90;;;;;;5057066;28;20045;-67
2022/03/19 01:52:11;;;;;;;12.90;3.58;;;5.60;99.90;;;;;;5075267;28;20055;-67
2022/03/19 01:54:39;;;;;;;12.25;3.47;;;5.60;99.90;;;;;;5075164;28;20029;-67
2022/03/19 01:57:06;;;;;;;11.40;3.50;;;5.50;99.90;;;;;;5074823;28;20405;-67
2022/03/19 01:59:34;;;;;;;19.60;4.65;;;5.60;99.90;;;;;;5074843;28;20560;-67
2022/03/19 02:02:05;;;;;;;14.43;5.30;;;5.50;99.90;;;;;;5074825;28;20498;-67
2022/03/19 02:04:31;;;;;;;18.90;4.43;;;5.50;99.90;;;;;;5075046;28;20051;-67
2022/03/19 02:06:57;;;;;;;8.73;3.72;;;5.50;99.90;;;;;;5074628;28;20086;-67
2022/03/19 02:09:23;;;;;;;12.73;4.68;;;5.50;99.90;;;;;;5074724;28;20045;-67
2022/03/19 02:11:49;;;;;;;22.33;4.88;;;5.50;99.90;;;;;;5074734;28;20110;-67
2022/03/19 02:14:15;;;;;;;18.13;4.40;;;5.50;99.90;;;;;;5074589;28;20078;-67
2022/03/19 02:16:42;;;;;;;15.75;4.22;;;5.50;99.90;;;;;;5074598;28;20036;-67
2022/03/19 02:19:07;;;;;;;17.40;3.80;;;5.50;99.90;;;;;;5074646;28;20509;-67
2022/03/19 02:21:46;;;;;;;14.95;4.18;;;5.50;99.90;;;;;;5056612;28;20040;-67
2022/03/19 02:26:58;;;;;;;12.40;4.00;;;5.40;99.90;;;;;;5074459;28;20422;-67
2022/03/19 02:29:24;;;;;;;13.05;3.45;;;5.40;99.90;;;;;;5074536;28;20041;-67
2022/03/19 02:32:01;;;;;;;12.50;4.28;;;5.40;99.90;;;;;;5074678;28;20131;-67
2022/03/19 02:34:27;;;;;;;16.77;4.28;;;5.40;99.90;;;;;;5074427;28;20112;-67
2022/03/19 02:36:53;;;;;;;16.90;5.40;;;5.40;99.90;;;;;;5074085;28;20047;-67
2022/03/19 02:39:22;;;;;;;14.73;4.90;;;5.40;99.90;;;;;;5073918;28;20157;-67
2022/03/19 02:41:49;;;;;;;21.65;5.40;;;5.30;99.90;;;;;;5074371;28;20093;-67
2022/03/19 02:44:16;;;;;;;15.55;4.90;;;5.30;99.90;;;;;;5073384;28;20486;-67
2022/03/19 02:46:44;;;;;;;21.73;5.03;;;5.40;99.90;;;;;;5073985;28;20063;-67
2022/03/19 02:49:10;;;;;;;12.18;5.72;;;5.30;99.90;;;;;;5056050;28;20086;-67
2022/03/19 02:51:37;;;;;;;13.45;4.63;;;5.40;99.90;;;;;;5073983;28;20033;-67
2022/03/19 02:54:04;;;;;;;15.23;4.65;;;5.30;99.90;;;;;;5074179;28;20048;-67
2022/03/19 02:56:35;;;;;;;20.00;5.38;;;5.30;99.90;;;;;;5073932;28;20063;-67
2022/03/19 02:59:09;;;;;;;16.70;4.97;;;5.30;99.90;;;;;;5074004;28;20086;-67
2022/03/19 03:01:37;;;;;;;17.00;5.75;;;5.20;99.90;;;;;;5073948;28;20078;-67
2022/03/19 03:04:03;;;;;;;18.40;6.95;;;5.20;99.90;;;;;;5073725;28;20518;-67
2022/03/19 03:06:33;;;;;;;16.35;5.10;;;5.20;99.90;;;;;;5073344;28;20589;-67
2022/03/19 03:08:58;;;;;;;13.05;4.68;;;5.20;99.90;;;;;;5073711;28;20040;-67
2022/03/19 03:11:24;;;;;;;14.48;4.90;;;5.20;99.90;;;;;;5073874;28;20112;-67
2022/03/19 03:13:49;;;;;;;12.23;5.13;;;5.20;99.90;;;;;;5073700;28;20033;-67
2022/03/19 03:16:15;;;;;;;15.43;5.00;;;5.20;99.90;;;;;;5073233;28;20143;-67
2022/03/19 03:18:41;;;;;;;14.70;5.25;;;5.10;99.90;;;;;;5073526;28;20039;-67
2022/03/19 03:21:06;;;;;;;8.25;4.22;;;5.20;99.90;;;;;;5073312;28;20079;-67
2022/03/19 03:23:33;;;;;;;16.77;4.65;;;5.20;99.90;;;;;;5073534;28;20094;-67
2022/03/19 03:25:58;;;;;;;14.32;4.97;;;5.20;99.90;;;;;;5073191;28;20068;-67
2022/03/19 03:28:24;;;;;;;14.35;4.43;;;5.20;99.90;;;;;;5073476;28;20091;-67
2022/03/19 03:30:50;;;;;;;15.43;4.45;;;5.00;99.90;;;;;;5073171;28;20549;-67
2022/03/19 03:33:15;;;;;;;19.40;5.15;;;5.00;99.90;;;;;;5055244;28;20040;-67
2022/03/19 03:35:41;;;;;;;12.23;4.70;;;5.00;99.90;;;;;;5072822;28;20667;-67
2022/03/19 03:38:07;;;;;;;21.60;4.97;;;5.00;99.90;;;;;;5073300;28;20048;-67
2022/03/19 03:40:32;;;;;;;16.23;5.25;;;5.10;99.90;;;;;;5072910;28;20040;-67
2022/03/19 03:42:58;;;;;;;13.73;5.45;;;5.00;99.90;;;;;;5073119;28;20118;-67
2022/03/19 03:45:27;;;;;;;12.48;5.20;;;5.00;99.90;;;;;;5072740;28;20074;-67
2022/03/19 03:47:53;;;;;;;14.98;5.22;;;5.00;99.90;;;;;;5072953;28;20094;-67
2022/03/19 03:50:20;;;;;;;15.07;5.55;;;5.00;99.90;;;;;;5072943;28;20076;-67
2022/03/19 03:52:45;;;;;;;14.38;6.15;;;5.00;99.90;;;;;;5072844;28;20070;-67
2022/03/19 03:55:11;;;;;;;13.02;4.80;;;4.90;99.90;;;;;;5072398;28;20496;-67
2022/03/19 03:57:38;;;;;;;19.65;5.35;;;4.90;99.90;;;;;;5072131;28;20060;-67
2022/03/19 04:00:04;;;;;;;13.43;5.90;;;4.90;99.90;;;;;;5072716;28;20048;-67
2022/03/19 04:02:30;;;;;;;16.33;5.30;;;4.90;99.90;;;;;;5072512;28;20105;-67
2022/03/19 04:04:56;;;;;;;16.65;6.35;;;4.90;99.90;;;;;;5072756;28;20482;-67
2022/03/19 04:07:23;;;;;;;15.10;5.35;;;4.80;99.90;;;;;;5072180;28;20462;-67
2022/03/19 04:09:49;;;;;;;20.80;7.10;;;4.70;99.90;;;;;;5072433;28;20052;-67
2022/03/19 04:12:15;;;;;;;15.68;5.55;;;4.80;99.90;;;;;;5072430;28;20037;-67
2022/03/19 04:14:40;;;;;;;15.55;5.13;;;4.70;99.90;;;;;;5072495;28;20036;-67
2022/03/19 04:17:06;;;;;;;13.27;6.00;;;4.70;99.90;;;;;;5072001;28;20115;-67
2022/03/19 04:19:32;;;;;;;14.02;5.65;;;4.70;99.90;;;;;;5072532;28;20045;-67
2022/03/19 04:21:58;;;;;;;17.27;6.07;;;4.70;99.90;;;;;;5072377;28;20040;-67
2022/03/19 04:24:23;;;;;;;15.23;5.55;;;4.70;99.90;;;;;;5054670;28;20051;-67
2022/03/19 04:26:49;;;;;;;16.38;6.82;;;4.70;99.90;;;;;;5071988;28;20036;-67
2022/03/19 04:29:14;;;;;;;18.55;6.93;;;4.70;99.90;;;;;;5072091;28;20127;-67
2022/03/19 04:31:40;;;;;;;19.08;5.75;;;4.60;99.90;;;;;;5072093;28;20032;-67
2022/03/19 04:34:05;;;;;;;14.57;6.00;;;4.60;99.90;;;;;;5072049;28;20036;-67
2022/03/19 04:36:36;;;;;;;19.83;6.65;;;4.60;99.90;;;;;;5071929;28;20040;-67
2022/03/19 04:39:04;;;;;;;13.07;6.60;;;4.50;99.90;;;;;;5071782;28;20581;-67
2022/03/19 04:41:29;;;;;;;17.65;6.72;;;4.50;99.90;;;;;;5072017;28;20037;-67
2022/03/19 04:43:55;;;;;;;17.55;5.95;;;4.50;99.90;;;;;;5071967;28;20036;-67
2022/03/19 04:46:21;;;;;;;11.60;5.78;;;4.50;99.90;;;;;;5071594;28;20036;-67
2022/03/19 04:48:48;;;;;;;23.35;6.78;;;4.50;99.90;;;;;;5054008;28;20040;-67
2022/03/19 04:51:16;;;;;;;19.30;7.65;;;4.50;99.90;;;;;;5071689;28;20470;-67
2022/03/19 04:53:42;;;;;;;17.48;7.78;;;4.50;99.90;;;;;;5071961;28;20123;-67
2022/03/19 04:56:08;;;;;;;16.90;6.38;;;4.40;99.90;;;;;;5071614;28;20044;-67
2022/03/19 04:58:34;;;;;;;16.50;7.18;;;4.50;99.90;;;;;;5071836;28;20123;-67
2022/03/19 05:01:00;;;;;;;23.98;8.02;;;4.50;99.90;;;;;;5071692;28;20044;-67
2022/03/19 05:03:26;;;;;;;16.48;7.45;;;4.50;99.90;;;;;;5071872;28;20040;-67
2022/03/19 05:05:52;;;;;;;22.73;7.05;;;4.50;99.90;;;;;;5071512;28;20054;-67
2022/03/19 05:08:17;;;;;;;15.95;7.90;;;4.50;99.90;;;;;;5071490;28;20047;-67
2022/03/19 05:13:28;;;;;;;18.25;8.57;;;4.50;99.90;;;;;;5071616;28;20044;-67
2022/03/19 05:15:54;;;;;;;15.52;7.95;;;4.50;99.90;;;;;;5071540;28;20375;-67
2022/03/19 05:18:20;;;;;;;22.05;7.20;;;4.40;99.90;;;;;;5071776;28;20064;-67
2022/03/19 05:20:46;;;;;;;20.65;8.80;;;4.40;99.90;;;;;;5071548;28;20485;-67
2022/03/19 05:23:12;;;;;;;16.98;8.32;;;4.40;99.90;;;;;;5071658;28;20056;-67
2022/03/19 05:25:38;;;;;;;16.70;7.72;;;4.40;99.90;;;;;;5071261;28;20045;-67
2022/03/19 05:28:04;;;;;;;18.67;7.38;;;4.50;99.90;;;;;;5071387;28;20527;-67
2022/03/19 05:30:31;;;;;;;20.73;7.82;;;4.40;99.90;;;;;;5071517;28;20040;-67
2022/03/19 05:32:57;;;;;;;18.35;8.15;;;4.40;99.90;;;;;;5071631;28;20041;-67
2022/03/19 05:35:22;;;;;;;21.05;7.57;;;4.50;99.90;;;;;;5071271;28;20148;-67
2022/03/19 05:37:49;;;;;;;22.05;9.15;;;4.40;99.90;;;;;;5071429;28;20545;-67
2022/03/19 05:40:15;;;;;;;19.42;8.25;;;4.40;99.90;;;;;;5071180;28;20079;-67
2022/03/19 05:42:41;;;;;;;21.52;8.32;;;4.40;99.90;;;;;;5071287;28;20064;-67
2022/03/19 05:45:07;;;;;;;23.95;9.38;;;4.30;99.90;;;;;;5071298;28;20036;-67
2022/03/19 05:47:32;;;;;;;22.27;8.23;;;4.30;99.90;;;;;;5071181;28;20051;-67
2022/03/19 05:49:58;;;;;;;16.23;8.43;;;4.40;99.90;;;;;;5071234;28;20067;-67
2022/03/19 05:52:24;;;;;;;18.95;9.40;;;4.40;99.90;;;;;;5071329;28;20032;-67
2022/03/19 05:54:49;;;;;;;28.52;9.80;;;4.20;99.90;;;;;;5071199;28;20627;-67
2022/03/19 05:57:15;;;;;;;18.23;8.02;;;4.30;99.90;;;;;;5070813;28;20040;-67
2022/03/19 05:59:40;;;;;;;18.23;8.63;;;4.30;99.90;;;;;;5071314;28;20036;-67
2022/03/19 06:02:06;;;;;;;26.00;9.88;;;4.30;99.90;;;;;;5071316;28;20072;-67
2022/03/19 06:04:33;;;;;;;22.58;9.98;;;4.20;99.90;;;;;;5071201;28;20525;-67
2022/03/19 06:06:59;;;;;;;17.65;9.57;;;4.20;99.90;;;;;;5071056;28;20051;-67
2022/03/19 06:09:24;;;;;;;23.92;10.18;;;4.20;99.90;;;;;;5070990;28;20045;-67
2022/03/19 06:11:50;;;;;;;18.80;8.85;;;4.30;99.90;;;;;;5070978;28;20036;-67
2022/03/19 06:14:16;;;;;;;25.35;11.77;;;4.30;99.90;;;;;;5071000;28;20033;-66
2022/03/19 06:16:41;;;;;;;18.60;9.30;;;4.30;99.90;;;;;;5052924;28;20589;-67
2022/03/19 06:19:07;;;;;;;20.30;9.10;;;4.40;99.90;;;;;;5071712;28;20675;-67
2022/03/19 06:21:32;;;;;;;26.02;11.20;;;4.40;99.90;;;;;;5074612;28;20486;-67
2022/03/19 06:23:58;;;;;;;20.50;10.05;;;4.40;99.90;;;;;;5074614;28;20042;-67
2022/03/19 06:26:23;;;;;;;18.75;8.93;;;4.40;99.90;;;;;;5074127;28;20078;-67
2022/03/19 06:28:50;;;;;;;21.92;9.23;;;4.50;99.90;;;;;;5074715;28;20033;-67
2022/03/19 06:31:16;;;;;;;22.65;9.88;;;4.50;99.90;;;;;;5074512;28;20052;-67
2022/03/19 06:33:42;;;;;;;21.27;9.85;;;4.60;99.90;;;;;;5056344;28;20402;-67
2022/03/19 06:38:53;;;;;;;24.15;10.00;;;4.70;99.90;;;;;;5074050;28;20051;-67
2022/03/19 06:41:18;;;;;;;22.70;10.07;;;4.90;99.90;;;;;;5074455;28;20123;-67
2022/03/19 06:43:44;;;;;;;21.73;9.32;;;5.00;99.90;;;;;;5074313;28;20120;-67
2022/03/19 06:46:10;;;;;;;19.40;8.38;;;5.20;99.90;;;;;;5073838;28;20044;-67
2022/03/19 06:48:35;;;;;;;18.58;8.65;;;5.40;99.90;;;;;;5074027;28;20066;-67
2022/03/19 06:51:01;;;;;;;24.25;9.00;;;5.60;99.90;;;;;;5073907;28;20402;-67
2022/03/19 06:53:26;;;;;;;21.02;9.35;;;5.80;99.90;;;;;;5073899;28;20032;-67
2022/03/19 06:55:52;;;;;;;20.38;8.05;;;5.80;99.90;;;;;;5073891;28;20040;-67
2022/03/19 06:58:22;;;;;;;23.90;8.80;;;6.00;99.90;;;;;;5074057;28;20024;-67
2022/03/19 07:00:48;;;;;;;21.88;8.95;;;6.20;99.90;;;;;;5073936;28;20036;-67
2022/03/19 07:03:14;;;;;;;19.60;8.38;;;6.30;99.90;;;;;;5073853;28;20055;-67
2022/03/19 07:05:39;;;;;;;16.90;8.05;;;6.30;99.90;;;;;;5073385;28;20486;-67
2022/03/19 07:08:08;;;;;;;19.80;7.53;;;6.50;99.90;;;;;;5073553;28;20044;-67
2022/03/19 07:10:34;;;;;;;17.77;7.68;;;6.60;99.90;;;;;;5073423;28;20045;-67
2022/03/19 07:13:00;;;;;;;16.90;7.60;;;6.70;99.90;;;;;;5055909;28;20044;-67
2022/03/19 07:15:30;;;;;;;18.00;7.50;;;6.80;99.90;;;;;;5073316;28;20036;-67
2022/03/19 07:17:57;;;;;;;15.98;7.20;;;7.00;99.90;;;;;;5055752;28;20051;-67
2022/03/19 07:20:23;;;;;;;15.68;6.88;;;7.10;99.90;;;;;;5073338;28;20045;-67
2022/03/19 07:22:50;;;;;;;16.73;6.07;;;7.30;99.90;;;;;;5073700;28;20043;-67
2022/03/19 07:25:17;;;;;;;17.58;7.25;;;7.40;99.90;;;;;;5073335;28;20032;-67
2022/03/19 07:27:43;;;;;;;18.60;5.95;;;7.30;99.90;;;;;;5073457;28;20041;-67
2022/03/19 07:30:09;;;;;;;19.05;5.60;;;7.60;99.90;;;;;;5073043;28;20091;-67
2022/03/19 07:32:34;;;;;;;14.60;5.80;;;7.70;99.40;;;;;;5073138;28;20037;-67
2022/03/19 07:35:00;;;;;;;12.75;6.03;;;7.90;99.90;;;;;;5073017;28;20040;-67
2022/03/19 07:37:28;;;;;;;16.08;6.35;;;8.00;99.50;;;;;;5072983;28;20100;-67
2022/03/19 07:39:54;;;;;;;19.98;7.70;;;8.10;98.60;;;;;;5073173;28;20045;-68
2022/03/19 07:42:20;;;;;;;11.75;5.78;;;8.20;98.00;;;;;;5073013;28;20142;-67
2022/03/19 07:44:45;;;;;;;16.55;6.47;;;8.40;97.40;;;;;;5055135;28;20080;-67
2022/03/19 07:47:11;;;;;;;17.27;5.80;;;8.60;96.70;;;;;;5072592;28;20040;-67
2022/03/19 07:49:37;;;;;;;17.13;5.57;;;8.40;96.00;;;;;;5072660;28;20437;-68
2022/03/19 07:52:05;;;;;;;15.02;5.97;;;8.70;95.60;;;;;;5073010;28;20045;-67
2022/03/19 07:54:32;;;;;;;15.68;5.95;;;8.90;94.60;;;;;;5072943;28;20103;-67
2022/03/19 07:56:57;;;;;;;16.90;6.30;;;9.00;94.30;;;;;;5072566;28;20044;-67
2022/03/19 07:59:23;;;;;;;16.95;6.57;;;9.00;92.90;;;;;;5072656;28;20039;-68
2022/03/19 08:01:49;;;;;;;17.60;5.95;;;9.10;93.60;;;;;;5072530;28;20060;-67
2022/03/19 08:04:15;;;;;;;15.88;5.60;;;9.20;92.00;;;;;;5072522;28;20035;-67
2022/03/19 08:06:41;;;;;;;13.25;5.18;;;9.20;91.10;;;;;;5072464;28;20406;-67
2022/03/19 08:09:09;;;;;;;13.75;5.28;;;9.30;91.10;;;;;;5072590;28;20032;-67
2022/03/19 08:11:35;;;;;;;13.80;5.75;;;9.40;90.20;;;;;;5072537;28;20052;-67
2022/03/19 08:14:01;;;;;;;11.98;5.20;;;9.40;90.10;;;;;;5072441;28;20040;-67
2022/03/19 08:16:27;;;;;;;13.70;5.95;;;9.50;90.20;;;;;;5072004;28;20405;-67
2022/03/19 08:18:53;;;;;;;16.42;5.18;;;9.60;89.80;;;;;;5072042;28;20044;-67
2022/03/19 08:21:18;;;;;;;18.45;6.13;;;9.60;88.00;;;;;;5072001;28;20127;-69
2022/03/19 08:23:46;;;;;;;11.75;5.13;;;9.50;87.00;;;;;;5072271;28;20040;-67
2022/03/19 08:26:12;;;;;;;14.02;5.35;;;9.60;87.80;;;;;;5071959;28;20047;-67
2022/03/19 08:28:37;;;;;;;22.60;6.10;;;9.70;86.50;;;;;;5072121;28;20041;-68
2022/03/19 08:31:03;;;;;;;18.70;5.07;;;9.70;86.30;;;;;;5071812;28;20048;-67
2022/03/19 08:33:28;;;;;;;12.02;4.50;;;9.80;85.00;;;;;;5054356;28;20036;-67
2022/03/19 08:35:54;;;;;;;18.55;6.28;;;9.80;83.10;;;;;;5071956;28;20036;-67
2022/03/19 08:41:04;;;;;;;14.32;4.53;;;9.90;83.10;;;;;;5071763;28;20086;-68
2022/03/19 08:43:29;;;;;;;14.07;4.60;;;10.10;81.40;;;;;;5071328;28;20068;-67
2022/03/19 08:45:55;;;;;;;10.93;4.07;;;10.10;81.10;;;;;;5071418;28;20040;-67
2022/03/19 08:48:21;;;;;;;15.93;4.38;;;10.10;79.70;;;;;;5071894;28;20043;-67
2022/03/19 08:50:46;;;;;;;14.18;4.25;;;10.20;79.30;;;;;;5071544;28;20040;-67
2022/03/19 08:53:13;;;;;;;12.18;4.22;;;10.20;78.40;;;;;;5071832;28;20082;-67
2022/03/19 08:55:39;;;;;;;10.90;4.07;;;10.30;78.00;;;;;;5058474;28;20033;-67
2022/03/19 08:58:05;;;;;;;10.25;3.75;;;10.40;77.30;;;;;;5062132;28;20082;-67
2022/03/19 09:00:31;;;;;;;12.20;4.10;;;10.30;76.50;;;;;;5060609;28;20119;-67
2022/03/19 09:02:56;;;;;;;11.18;3.67;;;10.30;75.60;;;;;;5063216;28;20054;-67
2022/03/19 09:05:22;;;;;;;10.18;3.90;;;10.30;75.30;;;;;;5064988;28;20049;-67
2022/03/19 09:07:49;;;;;;;14.02;3.83;;;10.20;74.90;;;;;;5061008;28;20040;-67
2022/03/19 09:10:14;;;;;;;11.18;3.53;;;10.20;75.40;;;;;;5059393;28;20045;-67
2022/03/19 09:12:40;;;;;;;13.52;3.72;;;10.20;75.60;;;;;;5051416;28;20499;-67
2022/03/19 09:15:10;;;;;;;14.35;3.70;;;10.20;74.40;;;;;;5051089;28;20112;-67
2022/03/19 09:17:36;;;;;;;13.55;4.22;;;10.20;74.50;;;;;;5051182;28;20037;-68
2022/03/19 09:20:02;;;;;;;13.07;4.88;;;10.20;74.70;;;;;;5051280;28;20090;-68
2022/03/19 09:22:30;;;;;;;11.13;4.03;;;10.20;73.70;;;;;;5051239;28;20120;-68
2022/03/19 09:24:55;;;;;;;11.85;3.90;;;10.20;72.70;;;;;;5051397;28;20041;-68
2022/03/19 09:27:22;;;;;;;11.18;3.97;;;10.10;73.00;;;;;;5051133;28;20060;-68
2022/03/19 09:29:47;;;;;;;15.45;4.30;;;10.10;71.50;;;;;;5050902;28;20080;-68
2022/03/19 09:32:13;;;;;;;12.98;3.80;;;10.10;71.30;;;;;;5034124;28;20037;-67
2022/03/19 09:34:39;;;;;;;15.23;4.05;;;10.10;71.80;;;;;;5051564;28;20506;-67
2022/03/19 09:37:05;;;;;;;11.43;3.45;;;10.10;71.50;;;;;;5051106;28;20065;-67
2022/03/19 09:39:31;;;;;;;11.90;2.60;;;10.20;70.00;;;;;;5051114;28;20111;-67
2022/03/19 09:41:56;;;;;;;12.18;3.50;;;10.20;69.70;;;;;;5051222;28;20626;-67
2022/03/19 09:44:26;;;;;;;14.10;3.05;;;10.20;69.70;;;;;;5051137;28;20048;-68
2022/03/19 09:46:53;;;;;;;8.18;2.50;;;10.20;68.20;;;;;;5051161;28;20115;-68
2022/03/19 09:49:19;;;;;;;11.30;2.95;;;10.20;67.50;;;;;;5050937;28;20494;-68
2022/03/19 09:51:54;;;;;;;10.98;3.85;;;10.20;68.10;;;;;;5051186;28;20044;-68
2022/03/19 09:54:24;;;;;;;9.55;4.25;;;10.20;68.80;;;;;;5052286;28;20090;-67
2022/03/19 09:56:51;;;;;;;10.85;3.10;;;10.30;68.80;;;;;;5054519;28;20094;-68
2022/03/19 09:59:17;;;;;;;13.10;3.50;;;10.40;68.40;;;;;;5054947;28;20067;-67
2022/03/19 10:01:44;;;;;;;9.45;2.63;;;10.30;67.00;;;;;;5054982;28;20049;-68
2022/03/19 10:04:11;;;;;;;10.40;3.30;;;10.40;67.50;;;;;;5054823;28;20490;-67
2022/03/19 10:09:43;;;;;;;9.23;3.15;;;10.50;66.20;;;;;;5054640;28;20052;-67
2022/03/19 10:12:18;;;;;;;10.75;3.42;;;10.40;64.70;;;;;;5054649;28;20029;-67
2022/03/19 10:14:51;;;;;;;10.63;2.90;;;10.50;66.00;;;;;;5054857;28;20060;-67
2022/03/19 10:17:28;;;;;;;12.23;3.63;;;10.50;65.70;;;;;;5054984;28;20448;-67
2022/03/19 10:20:07;;;;;;;14.32;2.92;;;10.50;64.80;;;;;;5054546;28;20033;-67
2022/03/19 10:22:34;;;;;;;11.45;3.70;;;10.70;64.80;;;;;;5054495;28;20041;-67
2022/03/19 10:25:05;;;;;;;6.40;1.90;;;10.60;62.70;;;;;;5054301;28;20414;-67
2022/03/19 10:27:36;;;;;;;3.90;2.05;;;10.60;60.90;;;;;;5054066;28;20068;-68
2022/03/19 10:30:10;;;;;;;9.20;2.13;;;10.50;59.40;;;;;;5054259;28;20036;-67
2022/03/19 10:32:39;;;;;;;7.43;2.20;;;10.50;58.60;;;;;;5054321;28;20044;-67
2022/03/19 10:35:05;;;;;;;7.32;2.55;;;10.50;58.00;;;;;;5054218;28;20410;-67
2022/03/19 10:37:38;;;;;;;8.13;2.10;;;10.60;57.00;;;;;;5053990;28;20037;-67
2022/03/19 10:40:05;;;;;;;5.40;1.83;;;10.60;56.20;;;;;;5076340;22;20395;-70
2022/03/19 10:42:38;;;;;;;4.93;1.98;;;10.70;57.30;;;;;;5036285;28;20322;-69
2022/03/19 10:45:06;;;;;;;6.47;1.70;;;10.90;58.30;;;;;;5036195;28;20044;-70
2022/03/19 10:47:43;;;;;;;7.20;2.35;;;10.80;57.30;;;;;;5036105;28;20106;-69
2022/03/19 10:50:11;;;;;;;10.15;3.10;;;10.90;59.10;;;;;;5052653;28;20033;-71
2022/03/19 10:52:37;;;;;;;9.60;2.88;;;10.80;59.70;;;;;;5036138;28;20044;-69
2022/03/19 10:55:04;;;;;;;14.27;3.53;;;10.80;60.80;;;;;;5035908;28;20041;-69
2022/03/19 10:57:30;;;;;;;7.47;2.92;;;10.80;61.10;;;;;;5035621;28;20102;-69
2022/03/19 10:59:56;;;;;;;13.30;3.35;;;10.80;61.50;;;;;;5035915;28;20438;-69
2022/03/19 11:02:26;;;;;;;6.30;3.28;;;10.80;62.20;;;;;;5053657;28;20041;-69
2022/03/19 11:04:52;;;;;;;7.85;2.78;;;10.90;61.60;;;;;;5035311;28;20537;-70
2022/03/19 11:07:21;;;;;;;9.15;3.10;;;10.90;60.90;;;;;;5053569;28;20072;-70
2022/03/19 11:09:51;;;;;;;10.68;2.88;;;11.00;60.60;;;;;;5053303;28;20495;-71
2022/03/19 11:12:20;;;;;;;9.60;2.80;;;11.00;61.10;;;;;;5053220;28;20045;-71
2022/03/19 11:14:46;;;;;;;5.55;2.90;;;11.00;61.30;;;;;;5035277;28;20048;-71
2022/03/19 11:17:23;;;;;;;9.68;3.75;;;11.00;61.80;;;;;;5035218;28;20043;-70
2022/03/19 11:19:50;;;;;;;7.93;2.80;;;11.20;60.90;;;;;;5035602;28;20047;-70
2022/03/19 11:22:16;;;;;;;6.20;2.25;;;11.10;60.00;;;;;;5018544;28;20554;-69
2022/03/19 11:24:55;;;;;;;6.45;2.70;;;11.10;61.10;;;;;;5053062;28;20075;-68
2022/03/19 11:27:22;;;;;;;8.65;3.00;;;11.10;60.10;;;;;;5032604;28;20167;-70
2022/03/19 11:29:47;;;;;;;6.93;2.55;;;11.20;60.00;;;;;;5052961;28;20041;-70
2022/03/19 11:32:23;;;;;;;10.38;2.28;;;11.10;59.10;;;;;;5035438;28;20529;-70
2022/03/19 11:34:50;;;;;;;8.63;2.33;;;11.10;61.00;;;;;;5053300;28;20041;-70
2022/03/19 11:37:16;;;;;;;6.13;2.97;;;11.20;60.20;;;;;;5052865;28;20468;-70
2022/03/19 11:40:02;;;;;;;8.60;2.17;;;11.20;60.00;;;;;;5052875;28;20064;-70
2022/03/19 11:42:32;;;;;;;5.00;1.73;;;11.20;59.90;;;;;;5053171;28;20037;-70
2022/03/19 11:45:11;;;;;;;8.63;2.50;;;11.30;59.80;;;;;;5035144;28;20036;-70
2022/03/19 11:47:38;;;;;;;5.82;2.33;;;11.30;58.40;;;;;;5052619;28;20037;-70
2022/03/19 11:50:21;;;;;;;4.82;1.60;;;11.30;58.60;;;;;;5052603;28;20485;-70
2022/03/19 11:52:46;;;;;;;3.70;1.80;;;11.30;58.40;;;;;;5053143;28;20060;-70
2022/03/19 11:55:17;;;;;;;5.03;2.20;;;11.20;57.80;;;;;;5052836;28;20071;-71
2022/03/19 11:57:58;;;;;;;8.57;3.15;;;11.40;57.80;;;;;;5052352;28;20494;-70
2022/03/19 12:00:26;;;;;;;4.38;2.00;;;11.30;57.20;;;;;;5052598;28;20418;-70
2022/03/19 12:03:14;;;;;;;5.57;1.60;;;11.30;57.20;;;;;;5052441;28;20064;-71
2022/03/19 12:05:43;;;;;;;5.20;1.75;;;11.40;57.30;;;;;;5034276;28;20040;-70
2022/03/19 12:08:26;;;;;;;10.63;2.20;;;11.40;57.00;;;;;;5052520;28;20095;-70
2022/03/19 12:10:59;;;;;;;7.18;2.08;;;11.30;56.20;;;;;;5018198;28;20056;-71
2022/03/19 12:13:28;;;;;;;5.18;1.92;;;11.30;57.00;;;;;;5052614;28;20091;-70
2022/03/19 12:15:59;;;;;;;4.45;1.92;;;11.30;56.30;;;;;;5052158;28;20499;-70
2022/03/19 12:18:44;;;;;;;6.50;2.88;;;11.40;57.80;;;;;;5033793;28;20040;-70
2022/03/19 12:21:09;;;;;;;7.95;2.20;;;11.40;57.70;;;;;;5052324;28;20037;-70
2022/03/19 12:24:15;;;;;;;6.28;1.83;;;11.50;57.90;;;;;;5034439;28;20045;-70
2022/03/19 12:26:47;;;;;;;7.15;1.88;;;11.50;57.80;;;;;;4985658;28;20114;-70
2022/03/19 12:29:14;;;;;;;5.75;2.40;;;11.50;57.60;;;;;;5052170;28;20040;-70
2022/03/19 12:31:46;;;;;;;6.95;1.95;;;11.50;57.70;;;;;;5052258;28;20095;-69
2022/03/19 12:34:15;;;;;;;5.90;2.10;;;11.50;57.40;;;;;;5052154;28;20033;-70
2022/03/19 12:36:40;;;;;;;4.65;2.28;;;11.60;57.40;;;;;;5033912;28;20465;-71
2022/03/19 12:39:06;;;;;;;7.82;2.28;;;11.70;58.40;;;;;;5033885;28;20123;-69
2022/03/19 12:41:32;;;;;;;6.90;2.70;;;11.70;58.10;;;;;;5051735;28;20041;-70
2022/03/19 12:44:21;;;;;;;6.82;2.15;;;11.70;57.00;;;;;;5051927;28;20367;-72
2022/03/19 12:46:59;;;;;;;5.45;2.00;;;11.70;57.40;;;;;;5033745;28;20044;-71
2022/03/19 12:49:26;;;;;;;5.53;1.90;;;11.70;57.80;;;;;;5051584;28;20037;-69
2022/03/19 12:51:51;;;;;;;6.30;1.80;;;11.70;57.90;;;;;;5033792;28;20404;-69
2022/03/19 12:54:29;;;;;;;5.38;2.08;;;11.80;55.70;;;;;;5052130;28;20036;-69
2022/03/19 12:57:06;;;;;;;3.80;2.13;;;11.70;56.00;;;;;;5033920;28;20380;-70
2022/03/19 12:59:32;;;;;;;8.52;2.40;;;11.90;57.40;;;;;;5051920;28;20395;-70